createdAt,value
2023-03-17T00:01:24.520Z,2.12
2023-03-17T00:03:51.647Z,2.14
2023-03-17T00:06:25.370Z,2.16
2023-03-17T00:08:53.292Z,2.12
2023-03-17T00:11:22.910Z,2.11
2023-03-17T00:13:55.751Z,2.08
2023-03-17T00:16:28.846Z,2.05
2023-03-17T00:18:57.625Z,2.03
2023-03-17T00:21:30.809Z,2.01
2023-03-17T00:23:58.682Z,1.97
2023-03-17T00:26:26.003Z,1.88
2023-03-17T00:28:56.119Z,1.93
2023-03-17T00:31:29.098Z,1.94
2023-03-17T00:34:04.866Z,1.93
2023-03-17T00:36:35.638Z,1.92
2023-03-17T00:41:40.153Z,1.84
2023-03-17T00:44:06.821Z,1.89
2023-03-17T00:46:38.304Z,1.89
2023-03-17T00:49:19.476Z,1.87
2023-03-17T00:51:49.756Z,1.87
2023-03-17T00:54:17.805Z,1.86
2023-03-17T00:56:47.407Z,1.79
2023-03-17T00:59:20.906Z,1.71
2023-03-17T01:01:49.004Z,1.68
2023-03-17T01:04:15.993Z,1.68
2023-03-17T01:06:43.364Z,1.69
2023-03-17T01:09:14.824Z,1.68
2023-03-17T01:11:42.193Z,1.69
2023-03-17T01:14:10.842Z,1.68
2023-03-17T01:16:37.753Z,1.65
2023-03-17T01:19:04.820Z,1.60
2023-03-17T01:21:34.654Z,1.57
2023-03-17T01:24:04.542Z,1.48
2023-03-17T01:26:34.260Z,1.41
2023-03-17T01:29:00.889Z,1.44
2023-03-17T01:31:28.191Z,1.41
2023-03-17T01:33:57.057Z,1.33
2023-03-17T01:36:23.682Z,1.19
2023-03-17T01:38:51.060Z,1.23
2023-03-17T01:41:20.842Z,1.28
2023-03-17T01:43:50.359Z,1.30
2023-03-17T01:46:35.515Z,1.26
2023-03-17T01:49:05.925Z,1.29
2023-03-17T01:51:38.822Z,1.27
2023-03-17T01:54:11.129Z,1.25
2023-03-17T01:56:44.588Z,1.12
2023-03-17T01:59:20.153Z,1.12
2023-03-17T02:01:49.740Z,1.06
2023-03-17T02:04:23.504Z,1.05
2023-03-17T02:06:58.268Z,1.01
2023-03-17T02:09:30.296Z,0.98
2023-03-17T02:11:59.924Z,0.99
2023-03-17T02:14:27.365Z,0.93
2023-03-17T02:17:00.578Z,0.88
2023-03-17T02:19:30.565Z,0.86
2023-03-17T02:22:01.534Z,0.89
2023-03-17T02:24:36.313Z,0.88
2023-03-17T02:27:34.952Z,0.91
2023-03-17T02:30:15.668Z,0.96
2023-03-17T02:32:42.555Z,0.93
2023-03-17T02:35:10.443Z,0.95
2023-03-17T02:37:38.000Z,0.92
2023-03-17T02:40:10.275Z,0.81
2023-03-17T02:42:40.234Z,0.76
2023-03-17T02:45:11.640Z,0.73
2023-03-17T02:47:44.849Z,0.64
2023-03-17T02:50:18.608Z,0.66
2023-03-17T02:52:47.251Z,0.61
2023-03-17T02:55:14.345Z,0.52
2023-03-17T02:57:41.208Z,0.51
2023-03-17T03:00:11.705Z,0.47
2023-03-17T03:02:38.388Z,0.46
2023-03-17T03:05:10.579Z,0.38
2023-03-17T03:07:44.361Z,0.36
2023-03-17T03:10:11.447Z,0.30
2023-03-17T03:12:42.961Z,0.23
2023-03-17T03:15:10.296Z,0.16
2023-03-17T03:17:36.981Z,0.09
2023-03-17T03:20:05.114Z,-0.01
2023-03-17T03:22:37.194Z,-0.08
2023-03-17T03:25:04.355Z,-0.14
2023-03-17T03:27:33.962Z,-0.18
2023-03-17T03:30:01.078Z,-0.17
2023-03-17T03:32:28.595Z,-0.19
2023-03-17T03:34:55.239Z,-0.29
2023-03-17T03:37:25.114Z,-0.40
2023-03-17T03:39:57.131Z,-0.39
2023-03-17T03:42:29.273Z,-0.44
2023-03-17T03:44:58.042Z,-0.46
2023-03-17T03:47:32.518Z,-0.47
2023-03-17T03:49:59.063Z,-0.53
2023-03-17T03:52:31.128Z,-0.54
2023-03-17T03:54:57.751Z,-0.57
2023-03-17T03:57:25.452Z,-0.65
2023-03-17T03:59:52.335Z,-0.69
2023-03-17T04:02:19.099Z,-0.73
2023-03-17T04:04:48.323Z,-0.74
2023-03-17T04:07:17.294Z,-0.73
2023-03-17T04:09:44.252Z,-0.73
2023-03-17T04:12:11.294Z,-0.75
2023-03-17T04:14:40.597Z,-0.73
2023-03-17T04:17:12.241Z,-0.70
2023-03-17T04:19:42.490Z,-0.79
2023-03-17T04:22:13.348Z,-0.73
2023-03-17T04:24:40.421Z,-0.76
2023-03-17T04:27:08.040Z,-0.73
2023-03-17T04:29:34.729Z,-0.83
2023-03-17T04:32:03.810Z,-0.88
2023-03-17T04:34:33.387Z,-0.85
2023-03-17T04:37:01.073Z,-0.87
2023-03-17T04:39:28.184Z,-0.87
2023-03-17T04:41:58.873Z,-0.85
2023-03-17T04:44:30.068Z,-0.78
2023-03-17T04:46:58.785Z,-0.74
2023-03-17T04:49:26.215Z,-0.75
2023-03-17T04:51:52.785Z,-0.80
2023-03-17T04:54:21.333Z,-0.75
2023-03-17T04:56:48.047Z,-0.79
2023-03-17T04:59:17.236Z,-0.76
2023-03-17T05:01:43.859Z,-0.74
2023-03-17T05:04:12.803Z,-0.70
2023-03-17T05:06:45.802Z,-0.66
2023-03-17T05:09:14.979Z,-0.57
2023-03-17T05:11:42.239Z,-0.57
2023-03-17T05:14:11.626Z,-0.56
2023-03-17T05:16:42.556Z,-0.56
2023-03-17T05:19:12.472Z,-0.62
2023-03-17T05:21:39.089Z,-0.59
2023-03-17T05:24:07.931Z,-0.53
2023-03-17T05:26:34.914Z,-0.53
2023-03-17T05:29:02.004Z,-0.50
2023-03-17T05:31:28.714Z,-0.47
2023-03-17T05:33:55.453Z,-0.37
2023-03-17T05:36:24.125Z,-0.33
2023-03-17T05:38:50.700Z,-0.35
2023-03-17T05:41:19.412Z,-0.32
2023-03-17T05:43:48.499Z,-0.32
2023-03-17T05:46:16.410Z,-0.31
2023-03-17T05:48:47.192Z,-0.22
2023-03-17T05:51:13.889Z,-0.21
2023-03-17T05:53:41.082Z,-0.18
2023-03-17T05:56:08.220Z,-0.12
2023-03-17T05:58:35.167Z,-0.07
2023-03-17T06:01:03.876Z,-0.05
2023-03-17T06:03:30.674Z,0.01
2023-03-17T06:05:57.504Z,0.02
2023-03-17T06:08:24.121Z,0.02
2023-03-17T06:10:53.389Z,0.01
2023-03-17T06:13:20.148Z,0.02
2023-03-17T06:15:52.048Z,0.15
2023-03-17T06:18:19.909Z,0.20
2023-03-17T06:20:46.971Z,0.26
2023-03-17T06:23:14.011Z,0.14
2023-03-17T06:25:43.559Z,0.18
2023-03-17T06:28:13.440Z,0.33
2023-03-17T06:30:42.526Z,0.37
2023-03-17T06:33:09.497Z,0.39
2023-03-17T06:35:38.406Z,0.46
2023-03-17T06:38:05.264Z,0.46
2023-03-17T06:40:34.567Z,0.49
2023-03-17T06:43:04.118Z,0.57
2023-03-17T06:45:33.934Z,0.58
2023-03-17T06:48:01.955Z,0.75
2023-03-17T06:50:37.574Z,0.81
2023-03-17T06:53:04.670Z,0.89
2023-03-17T06:55:32.140Z,1.01
2023-03-17T06:57:59.234Z,1.03
2023-03-17T07:00:26.547Z,1.05
2023-03-17T07:02:58.708Z,1.13
2023-03-17T07:05:41.404Z,1.29
2023-03-17T07:08:08.949Z,1.39
2023-03-17T07:10:36.857Z,1.47
2023-03-17T07:13:04.253Z,1.52
2023-03-17T07:15:35.121Z,1.53
2023-03-17T07:18:11.927Z,1.61
2023-03-17T07:20:38.596Z,1.78
2023-03-17T07:23:05.275Z,1.89
2023-03-17T07:25:34.564Z,1.94
2023-03-17T07:28:01.239Z,1.95
2023-03-17T07:30:28.785Z,1.98
2023-03-17T07:33:00.279Z,2.19
2023-03-17T07:35:33.601Z,2.24
2023-03-17T07:38:05.376Z,2.38
2023-03-17T07:40:34.294Z,2.40
2023-03-17T07:43:02.702Z,2.50
2023-03-17T07:45:29.629Z,2.44
2023-03-17T07:47:56.527Z,2.51
2023-03-17T07:50:27.545Z,2.56
2023-03-17T07:52:55.691Z,2.68
2023-03-17T07:55:22.586Z,2.81
2023-03-17T07:57:49.515Z,2.92
2023-03-17T08:00:17.249Z,2.84
2023-03-17T08:02:53.705Z,3.04
2023-03-17T08:05:29.010Z,3.12
2023-03-17T08:07:55.668Z,3.06
2023-03-17T08:10:22.857Z,3.19
2023-03-17T08:12:52.105Z,3.29
2023-03-17T08:15:18.923Z,3.38
2023-03-17T08:17:46.794Z,3.44
2023-03-17T08:20:14.368Z,3.57
2023-03-17T08:22:41.611Z,3.50
2023-03-17T08:25:09.745Z,3.61
2023-03-17T08:27:36.564Z,3.59
2023-03-17T08:30:04.710Z,3.71
2023-03-17T08:32:31.598Z,3.89
2023-03-17T08:34:58.255Z,4.00
2023-03-17T08:37:24.966Z,4.04
2023-03-17T08:39:51.809Z,4.02
2023-03-17T08:42:18.382Z,4.03
2023-03-17T08:44:44.997Z,4.04
2023-03-17T08:47:11.660Z,4.02
2023-03-17T08:49:41.307Z,4.16
2023-03-17T08:52:08.301Z,4.34
2023-03-17T08:54:35.831Z,4.34
2023-03-17T08:57:02.793Z,4.47
2023-03-17T08:59:29.509Z,4.60
2023-03-17T09:01:56.963Z,4.81
2023-03-17T09:04:23.643Z,4.85
2023-03-17T09:07:02.847Z,5.06
2023-03-17T09:09:31.332Z,5.08
2023-03-17T09:12:00.362Z,5.23
2023-03-17T09:14:27.583Z,5.23
2023-03-17T09:16:57.320Z,5.39
2023-03-17T09:19:24.182Z,5.58
2023-03-17T09:21:52.009Z,5.57
2023-03-17T09:24:21.192Z,5.52
2023-03-17T09:26:47.820Z,5.65
2023-03-17T09:29:15.412Z,5.73
2023-03-17T09:31:45.080Z,5.76
2023-03-17T09:34:11.913Z,5.84
2023-03-17T09:36:38.772Z,5.62
2023-03-17T09:39:06.814Z,5.79
2023-03-17T09:41:51.478Z,6.04
2023-03-17T09:44:42.391Z,6.14
2023-03-17T09:47:40.083Z,6.36
2023-03-17T09:50:17.273Z,6.15
2023-03-17T09:52:44.241Z,6.43
2023-03-17T09:55:20.886Z,6.20
2023-03-17T09:57:48.116Z,6.46
2023-03-17T10:00:29.372Z,6.09
2023-03-17T10:02:57.947Z,5.96
2023-03-17T10:05:39.944Z,6.07
2023-03-17T10:08:32.116Z,5.95
2023-03-17T10:11:05.974Z,5.87
2023-03-17T10:13:58.704Z,5.76
2023-03-17T10:16:38.301Z,5.77
2023-03-17T10:19:19.606Z,5.64
2023-03-17T10:22:17.016Z,5.52
2023-03-17T10:24:48.234Z,5.58
2023-03-17T10:27:19.504Z,5.68
2023-03-17T10:29:48.828Z,5.98
2023-03-17T10:32:16.122Z,6.23
2023-03-17T10:34:43.712Z,6.33
2023-03-17T10:37:37.319Z,6.53
2023-03-17T10:40:10.531Z,6.60
2023-03-17T10:42:47.766Z,6.59
2023-03-17T10:45:17.214Z,6.61
2023-03-17T10:47:56.556Z,6.79
2023-03-17T10:50:32.977Z,6.92
2023-03-17T10:53:19.321Z,6.88
2023-03-17T10:56:06.772Z,7.13
2023-03-17T10:58:38.838Z,7.03
2023-03-17T11:01:29.146Z,6.99
2023-03-17T11:03:57.834Z,7.03
2023-03-17T11:06:49.089Z,7.18
2023-03-17T11:09:19.238Z,7.02
2023-03-17T11:11:59.374Z,6.87
2023-03-17T11:14:40.464Z,7.00
2023-03-17T11:17:19.099Z,7.11
2023-03-17T11:20:07.313Z,7.00
2023-03-17T11:22:43.048Z,7.13
2023-03-17T11:25:13.330Z,7.21
2023-03-17T11:28:17.923Z,7.56
2023-03-17T11:31:15.323Z,7.42
2023-03-17T11:33:55.125Z,7.56
2023-03-17T11:36:45.486Z,7.62
2023-03-17T11:39:21.065Z,7.71
2023-03-17T11:41:53.806Z,7.80
2023-03-17T11:44:30.168Z,7.95
2023-03-17T11:47:07.761Z,7.99
2023-03-17T11:49:37.817Z,7.89
2023-03-17T11:52:11.050Z,7.53
2023-03-17T11:55:05.229Z,7.65
2023-03-17T11:57:54.957Z,7.80
2023-03-17T12:00:42.136Z,7.75
2023-03-17T12:03:33.972Z,7.80
2023-03-17T12:06:08.596Z,7.90
2023-03-17T12:08:45.802Z,8.16
2023-03-17T12:11:23.702Z,8.14
2023-03-17T12:13:57.078Z,8.42
2023-03-17T12:16:52.563Z,8.54
2023-03-17T12:19:25.363Z,8.20
2023-03-17T12:22:11.546Z,8.17
2023-03-17T12:24:57.211Z,8.06
2023-03-17T12:27:28.587Z,7.69
2023-03-17T12:30:38.835Z,7.75
2023-03-17T12:33:18.140Z,7.77
2023-03-17T12:35:49.408Z,8.02
2023-03-17T12:39:02.157Z,7.94
2023-03-17T12:41:49.957Z,7.98
2023-03-17T12:44:39.264Z,8.15
2023-03-17T12:47:08.987Z,8.25
2023-03-17T12:49:42.263Z,8.12
2023-03-17T12:52:23.835Z,7.58
2023-03-17T12:54:55.072Z,7.70
2023-03-17T12:57:29.313Z,7.57
2023-03-17T13:00:25.450Z,6.96
2023-03-17T13:03:25.618Z,7.10
2023-03-17T13:06:08.555Z,7.50
2023-03-17T13:08:41.294Z,7.86
2023-03-17T13:11:47.183Z,7.89
2023-03-17T13:14:27.196Z,8.21
2023-03-17T13:17:37.090Z,8.13
2023-03-17T13:20:12.757Z,7.92
2023-03-17T13:23:13.254Z,8.06
2023-03-17T13:25:41.348Z,7.94
2023-03-17T13:28:11.897Z,8.24
2023-03-17T13:30:38.779Z,8.27
2023-03-17T13:33:11.562Z,8.34
2023-03-17T13:35:46.995Z,8.39
2023-03-17T13:38:38.285Z,8.46
2023-03-17T13:41:19.162Z,8.68
2023-03-17T13:43:58.207Z,8.78
2023-03-17T13:46:37.703Z,8.82
2023-03-17T13:49:19.740Z,8.95
2023-03-17T13:52:03.564Z,8.87
2023-03-17T13:54:34.459Z,8.65
2023-03-17T13:57:30.080Z,8.34
2023-03-17T14:00:28.188Z,8.74
2023-03-17T14:03:06.710Z,8.91
2023-03-17T14:05:38.077Z,9.29
2023-03-17T14:08:15.957Z,9.53
2023-03-17T14:10:54.042Z,9.45
2023-03-17T14:13:32.169Z,9.64
2023-03-17T14:16:17.703Z,9.89
2023-03-17T14:18:57.648Z,10.17
2023-03-17T14:21:34.616Z,10.30
2023-03-17T14:24:07.341Z,10.36
2023-03-17T14:26:36.758Z,10.44
2023-03-17T14:29:15.597Z,10.36
2023-03-17T14:31:50.237Z,10.29
2023-03-17T14:34:35.176Z,10.50
2023-03-17T14:37:13.668Z,10.54
2023-03-17T14:39:54.314Z,10.62
2023-03-17T14:42:27.284Z,10.76
2023-03-17T14:45:27.615Z,10.83
2023-03-17T14:48:04.965Z,11.20
2023-03-17T14:50:32.816Z,11.19
2023-03-17T14:53:33.351Z,11.11
2023-03-17T14:56:01.187Z,11.23
2023-03-17T14:58:42.043Z,11.32
2023-03-17T15:01:34.767Z,11.65
2023-03-17T15:04:23.799Z,12.11
2023-03-17T15:06:55.369Z,12.28
2023-03-17T15:09:34.335Z,12.08
2023-03-17T15:12:17.498Z,11.90
2023-03-17T15:14:47.675Z,12.08
2023-03-17T15:17:22.906Z,11.83
2023-03-17T15:19:57.483Z,12.48
2023-03-17T15:22:35.573Z,12.65
2023-03-17T15:25:26.538Z,12.84
2023-03-17T15:27:59.782Z,13.22
2023-03-17T15:30:37.417Z,12.81
2023-03-17T15:33:28.970Z,13.15
2023-03-17T15:35:56.953Z,13.12
2023-03-17T15:38:26.809Z,13.04
2023-03-17T15:40:56.247Z,12.74
2023-03-17T15:43:23.697Z,12.76
2023-03-17T15:46:07.075Z,12.56
2023-03-17T15:48:40.963Z,12.21
2023-03-17T15:51:10.900Z,11.88
2023-03-17T15:53:39.725Z,12.34
2023-03-17T15:56:11.232Z,12.13
2023-03-17T15:58:37.949Z,11.69
2023-03-17T16:01:12.664Z,11.52
2023-03-17T16:03:42.061Z,11.71
2023-03-17T16:06:20.882Z,10.49
2023-03-17T16:08:48.872Z,8.59
2023-03-17T16:11:19.126Z,7.95
2023-03-17T16:13:49.168Z,7.49
2023-03-17T16:16:27.097Z,7.20
2023-03-17T16:18:53.776Z,7.01
2023-03-17T16:21:23.045Z,6.77
2023-03-17T16:23:50.119Z,6.59
2023-03-17T16:26:18.913Z,6.54
2023-03-17T16:28:46.437Z,6.23
2023-03-17T16:31:20.122Z,6.00
2023-03-17T16:33:47.667Z,5.91
2023-03-17T16:36:17.389Z,5.85
2023-03-17T16:38:44.522Z,5.71
2023-03-17T16:41:28.430Z,5.54
2023-03-17T16:44:08.030Z,5.46
2023-03-17T16:46:35.767Z,5.15
2023-03-17T16:49:04.128Z,4.85
2023-03-17T16:51:33.023Z,4.78
2023-03-17T16:54:01.972Z,4.73
2023-03-17T16:56:31.665Z,4.56
2023-03-17T16:59:00.976Z,4.51
2023-03-17T17:01:29.743Z,4.37
2023-03-17T17:03:57.014Z,4.32
2023-03-17T17:06:24.473Z,4.25
2023-03-17T17:08:54.302Z,4.16
2023-03-17T17:11:21.519Z,4.10
2023-03-17T17:13:51.176Z,4.07
2023-03-17T17:16:24.637Z,3.96
2023-03-17T17:18:57.764Z,3.95
2023-03-17T17:21:27.835Z,3.83
2023-03-17T17:24:00.258Z,3.82
2023-03-17T17:26:29.144Z,3.78
2023-03-17T17:28:58.341Z,3.63
2023-03-17T17:31:25.683Z,3.59
2023-03-17T17:33:57.590Z,3.65
2023-03-17T17:36:28.428Z,3.54
2023-03-17T17:38:55.167Z,3.43
2023-03-17T17:41:24.356Z,3.38
2023-03-17T17:44:02.086Z,3.24
2023-03-17T17:46:44.027Z,3.13
2023-03-17T17:49:12.249Z,3.05
2023-03-17T17:51:39.073Z,3.02
2023-03-17T17:54:05.973Z,3.02
2023-03-17T17:56:42.092Z,3.00
2023-03-17T17:59:13.992Z,3.00
2023-03-17T18:01:47.317Z,2.92
2023-03-17T18:04:14.031Z,2.81
2023-03-17T18:06:46.058Z,2.76
2023-03-17T18:09:15.658Z,2.70
2023-03-17T18:11:45.673Z,2.63
2023-03-17T18:14:13.261Z,2.60
2023-03-17T18:16:40.589Z,2.51
2023-03-17T18:19:09.482Z,2.40
2023-03-17T18:21:36.689Z,2.38
2023-03-17T18:24:04.444Z,2.41
2023-03-17T18:26:33.058Z,2.44
2023-03-17T18:29:03.054Z,2.42
2023-03-17T18:34:46.366Z,2.12
2023-03-17T18:37:15.404Z,2.04
2023-03-17T18:40:12.551Z,2.17
2023-03-17T18:42:51.994Z,2.13
2023-03-17T18:45:23.507Z,2.08
2023-03-17T18:47:53.202Z,2.00
2023-03-17T18:50:23.329Z,1.97
2023-03-17T18:52:50.457Z,1.96
2023-03-17T18:55:17.790Z,1.93
2023-03-17T18:57:45.889Z,1.88
2023-03-17T19:00:17.493Z,1.84
2023-03-17T19:02:53.745Z,1.78
2023-03-17T19:05:25.543Z,1.67
2023-03-17T19:08:02.251Z,1.64
2023-03-17T19:10:32.008Z,1.63
2023-03-17T19:13:12.406Z,1.62
2023-03-17T19:15:41.005Z,1.59
2023-03-17T19:18:12.703Z,1.41
2023-03-17T19:20:49.166Z,1.26
2023-03-17T19:23:24.299Z,1.25
2023-03-17T19:25:53.641Z,1.29
2023-03-17T19:28:35.285Z,1.35
2023-03-17T19:31:13.815Z,1.22
2023-03-17T19:33:40.991Z,1.05
2023-03-17T19:36:14.831Z,0.77
2023-03-17T19:38:41.669Z,0.77
2023-03-17T19:41:08.795Z,0.82
2023-03-17T19:43:41.641Z,0.86
2023-03-17T19:46:16.454Z,0.97
2023-03-17T19:48:43.233Z,0.88
2023-03-17T19:51:10.103Z,0.80
2023-03-17T19:53:44.354Z,0.71
2023-03-17T19:56:11.214Z,0.74
2023-03-17T19:58:40.561Z,0.83
2023-03-17T20:01:13.333Z,0.82
2023-03-17T20:03:42.723Z,0.85
2023-03-17T20:06:14.954Z,0.85
2023-03-17T20:08:43.340Z,0.93
2023-03-17T20:11:14.950Z,1.07
2023-03-17T20:13:41.838Z,0.85
2023-03-17T20:16:09.105Z,0.98
2023-03-17T20:18:36.526Z,1.00
2023-03-17T20:21:05.836Z,1.02
2023-03-17T20:23:33.032Z,1.01
2023-03-17T20:26:02.325Z,0.88
2023-03-17T20:28:31.457Z,0.80
2023-03-17T20:30:59.895Z,0.77
2023-03-17T20:33:29.439Z,0.79
2023-03-17T20:35:59.421Z,0.82
2023-03-17T20:38:32.046Z,0.78
2023-03-17T20:41:19.167Z,0.61
2023-03-17T20:43:48.482Z,0.52
2023-03-17T20:46:21.511Z,0.27
2023-03-17T20:48:59.067Z,0.11
2023-03-17T20:51:29.279Z,0.12
2023-03-17T20:53:59.692Z,0.12
2023-03-17T20:56:29.955Z,0.06
2023-03-17T20:58:58.500Z,0.08
2023-03-17T21:01:26.826Z,0.08
2023-03-17T21:03:59.220Z,0.08
2023-03-17T21:06:31.279Z,0.15
2023-03-17T21:08:57.835Z,0.11
2023-03-17T21:11:26.927Z,0.17
2023-03-17T21:13:54.077Z,0.11
2023-03-17T21:16:24.050Z,0.12
2023-03-17T21:18:51.563Z,0.21
2023-03-17T21:21:18.962Z,0.21
2023-03-17T21:23:45.793Z,0.03
2023-03-17T21:26:16.788Z,-0.04
2023-03-17T21:28:50.421Z,-0.13
2023-03-17T21:31:25.575Z,-0.16
2023-03-17T21:33:57.477Z,-0.15
2023-03-17T21:36:24.196Z,-0.17
2023-03-17T21:38:50.869Z,-0.20
2023-03-17T21:41:23.843Z,-0.30
2023-03-17T21:43:50.576Z,-0.28
2023-03-17T21:46:17.297Z,-0.29
2023-03-17T21:48:44.159Z,-0.33
2023-03-17T21:51:14.062Z,-0.47
2023-03-17T21:53:40.730Z,-0.59
2023-03-17T21:56:08.917Z,-0.67
2023-03-17T21:58:36.142Z,-0.64
2023-03-17T22:01:08.252Z,-0.64
2023-03-17T22:03:36.585Z,-0.73
2023-03-17T22:06:08.247Z,-0.75
2023-03-17T22:08:35.428Z,-0.78
2023-03-17T22:11:10.941Z,-0.87
2023-03-17T22:13:37.859Z,-0.87
2023-03-17T22:16:06.913Z,-0.92
2023-03-17T22:18:36.636Z,-0.93
2023-03-17T22:21:04.948Z,-0.86
2023-03-17T22:23:39.802Z,-0.98
2023-03-17T22:26:06.676Z,-0.98
2023-03-17T22:28:35.880Z,-0.96
2023-03-17T22:31:06.761Z,-0.91
2023-03-17T22:33:34.169Z,-0.86
2023-03-17T22:36:00.900Z,-0.84
2023-03-17T22:38:27.572Z,-0.87
2023-03-17T22:41:02.203Z,-0.87
2023-03-17T22:43:28.968Z,-0.92
2023-03-17T22:45:58.287Z,-0.93
2023-03-17T22:48:28.053Z,-0.93
2023-03-17T22:50:54.688Z,-0.92
2023-03-17T22:53:21.265Z,-0.92
2023-03-17T22:55:47.856Z,-0.93
2023-03-17T22:58:17.071Z,-0.93
2023-03-17T23:00:43.706Z,-0.95
2023-03-17T23:03:13.152Z,-0.98
2023-03-17T23:05:45.673Z,-1.05
2023-03-17T23:08:12.432Z,-1.02
2023-03-17T23:10:43.455Z,-1.06
2023-03-17T23:13:10.065Z,-1.03
2023-03-17T23:15:36.793Z,-0.98
2023-03-17T23:18:06.179Z,-1.00
2023-03-17T23:20:33.377Z,-0.93
2023-03-17T23:23:00.385Z,-0.92
2023-03-17T23:25:27.129Z,-1.05
2023-03-17T23:27:53.824Z,-1.06
2023-03-17T23:30:21.244Z,-0.96
2023-03-17T23:32:51.347Z,-0.93
2023-03-17T23:35:19.605Z,-0.90
2023-03-17T23:37:46.509Z,-1.00
2023-03-17T23:40:17.154Z,-1.23
2023-03-17T23:42:47.557Z,-1.27
2023-03-17T23:45:18.516Z,-1.30
2023-03-17T23:47:48.883Z,-1.33
2023-03-17T23:50:16.117Z,-1.35
2023-03-17T23:52:45.634Z,-1.28
2023-03-17T23:55:14.985Z,-1.32
2023-03-17T23:57:42.119Z,-1.38
